sensor_id;sensor_type;location;lat;lon;timestamp;temperature;humidity
76936;DHT22;65881;52.438;16.744;2023-07-02T00:02:09;18.40;70.60
76936;DHT22;65881;52.438;16.744;2023-07-02T00:04:35;18.40;71.20
76936;DHT22;65881;52.438;16.744;2023-07-02T00:07:00;18.30;71.70
76936;DHT22;65881;52.438;16.744;2023-07-02T00:09:26;18.30;71.90
76936;DHT22;65881;52.438;16.744;2023-07-02T00:11:52;18.20;72.40
76936;DHT22;65881;52.438;16.744;2023-07-02T00:14:17;18.30;72.50
76936;DHT22;65881;52.438;16.744;2023-07-02T00:16:45;18.20;73.40
76936;DHT22;65881;52.438;16.744;2023-07-02T00:19:15;18.20;73.50
76936;DHT22;65881;52.438;16.744;2023-07-02T00:21:41;18.20;72.70
76936;DHT22;65881;52.438;16.744;2023-07-02T00:24:09;18.20;73.20
76936;DHT22;65881;52.438;16.744;2023-07-02T00:26:41;18.20;73.30
76936;DHT22;65881;52.438;16.744;2023-07-02T00:29:07;18.10;73.60
76936;DHT22;65881;52.438;16.744;2023-07-02T00:31:35;18.10;73.60
76936;DHT22;65881;52.438;16.744;2023-07-02T00:34:07;18.00;73.70
76936;DHT22;65881;52.438;16.744;2023-07-02T00:36:33;18.00;73.90
76936;DHT22;65881;52.438;16.744;2023-07-02T00:38:59;18.00;73.70
76936;DHT22;65881;52.438;16.744;2023-07-02T00:41:25;18.00;73.80
76936;DHT22;65881;52.438;16.744;2023-07-02T00:43:51;18.00;73.80
76936;DHT22;65881;52.438;16.744;2023-07-02T00:46:20;18.00;73.80
76936;DHT22;65881;52.438;16.744;2023-07-02T00:48:52;18.00;73.90
76936;DHT22;65881;52.438;16.744;2023-07-02T00:51:25;18.00;74.50
76936;DHT22;65881;52.438;16.744;2023-07-02T00:53:54;18.00;75.50
76936;DHT22;65881;52.438;16.744;2023-07-02T00:56:24;18.00;76.40
76936;DHT22;65881;52.438;16.744;2023-07-02T00:58:51;17.80;77.50
76936;DHT22;65881;52.438;16.744;2023-07-02T01:01:25;17.80;78.40
76936;DHT22;65881;52.438;16.744;2023-07-02T01:04:02;17.60;79.50
76936;DHT22;65881;52.438;16.744;2023-07-02T01:06:35;17.50;81.90
76936;DHT22;65881;52.438;16.744;2023-07-02T01:09:06;17.40;82.30
76936;DHT22;65881;52.438;16.744;2023-07-02T01:11:36;17.40;83.00
76936;DHT22;65881;52.438;16.744;2023-07-02T01:14:48;17.30;83.60
76936;DHT22;65881;52.438;16.744;2023-07-02T01:16:55;17.20;84.00
76936;DHT22;65881;52.438;16.744;2023-07-02T01:19:44;17.20;84.40
76936;DHT22;65881;52.438;16.744;2023-07-02T01:22:24;17.20;84.70
76936;DHT22;65881;52.438;16.744;2023-07-02T01:24:54;17.20;84.90
76936;DHT22;65881;52.438;16.744;2023-07-02T01:27:20;17.20;85.20
76936;DHT22;65881;52.438;16.744;2023-07-02T01:29:50;17.10;85.50
76936;DHT22;65881;52.438;16.744;2023-07-02T01:32:16;17.00;85.40
76936;DHT22;65881;52.438;16.744;2023-07-02T01:34:42;17.00;85.60
76936;DHT22;65881;52.438;16.744;2023-07-02T01:37:14;17.00;86.00
76936;DHT22;65881;52.438;16.744;2023-07-02T01:39:39;17.00;86.10
76936;DHT22;65881;52.438;16.744;2023-07-02T01:42:09;17.00;86.40
76936;DHT22;65881;52.438;16.744;2023-07-02T01:44:35;17.00;86.70
76936;DHT22;65881;52.438;16.744;2023-07-02T01:47:01;17.00;86.50
76936;DHT22;65881;52.438;16.744;2023-07-02T01:49:27;17.00;86.70
76936;DHT22;65881;52.438;16.744;2023-07-02T01:51:55;17.00;86.80
76936;DHT22;65881;52.438;16.744;2023-07-02T01:54:23;17.00;86.90
76936;DHT22;65881;52.438;16.744;2023-07-02T01:56:49;17.00;86.40
76936;DHT22;65881;52.438;16.744;2023-07-02T01:59:15;17.00;86.80
76936;DHT22;65881;52.438;16.744;2023-07-02T02:01:42;17.00;86.60
76936;DHT22;65881;52.438;16.744;2023-07-02T02:04:11;17.00;87.10
76936;DHT22;65881;52.438;16.744;2023-07-02T02:06:38;17.00;86.90
76936;DHT22;65881;52.438;16.744;2023-07-02T02:09:04;17.00;87.20
76936;DHT22;65881;52.438;16.744;2023-07-02T02:11:31;17.00;87.20
76936;DHT22;65881;52.438;16.744;2023-07-02T02:13:57;17.00;87.30
76936;DHT22;65881;52.438;16.744;2023-07-02T02:16:23;17.00;87.70
76936;DHT22;65881;52.438;16.744;2023-07-02T02:18:49;16.90;87.90
76936;DHT22;65881;52.438;16.744;2023-07-02T02:21:19;17.00;88.00
76936;DHT22;65881;52.438;16.744;2023-07-02T02:23:45;16.90;88.20
76936;DHT22;65881;52.438;16.744;2023-07-02T02:26:11;16.90;87.90
76936;DHT22;65881;52.438;16.744;2023-07-02T02:28:37;17.00;88.00
76936;DHT22;65881;52.438;16.744;2023-07-02T02:31:03;17.00;88.00
76936;DHT22;65881;52.438;16.744;2023-07-02T02:33:29;17.00;88.00
76936;DHT22;65881;52.438;16.744;2023-07-02T02:35:55;17.00;88.30
76936;DHT22;65881;52.438;16.744;2023-07-02T02:38:22;17.00;88.10
76936;DHT22;65881;52.438;16.744;2023-07-02T02:40:47;17.00;87.90
76936;DHT22;65881;52.438;16.744;2023-07-02T02:43:13;17.00;87.70
76936;DHT22;65881;52.438;16.744;2023-07-02T02:45:42;17.00;87.80
76936;DHT22;65881;52.438;16.744;2023-07-02T02:48:08;17.00;88.00
76936;DHT22;65881;52.438;16.744;2023-07-02T02:50:33;17.00;87.60
76936;DHT22;65881;52.438;16.744;2023-07-02T02:53:05;17.00;87.90
76936;DHT22;65881;52.438;16.744;2023-07-02T02:55:30;17.00;87.70
76936;DHT22;65881;52.438;16.744;2023-07-02T02:57:56;17.00;87.70
76936;DHT22;65881;52.438;16.744;2023-07-02T03:00:22;17.00;87.60
76936;DHT22;65881;52.438;16.744;2023-07-02T03:02:51;17.10;87.50
76936;DHT22;65881;52.438;16.744;2023-07-02T03:05:17;17.10;87.50
76936;DHT22;65881;52.438;16.744;2023-07-02T03:07:43;17.10;87.20
76936;DHT22;65881;52.438;16.744;2023-07-02T03:10:09;17.10;87.00
76936;DHT22;65881;52.438;16.744;2023-07-02T03:12:34;17.10;87.30
76936;DHT22;65881;52.438;16.744;2023-07-02T03:15:00;17.20;87.50
76936;DHT22;65881;52.438;16.744;2023-07-02T03:17:30;17.20;87.40
76936;DHT22;65881;52.438;16.744;2023-07-02T03:19:56;17.20;87.50
76936;DHT22;65881;52.438;16.744;2023-07-02T03:22:21;17.20;87.20
76936;DHT22;65881;52.438;16.744;2023-07-02T03:24:47;17.20;87.10
76936;DHT22;65881;52.438;16.744;2023-07-02T03:27:13;17.20;87.20
76936;DHT22;65881;52.438;16.744;2023-07-02T03:29:38;17.20;87.20
76936;DHT22;65881;52.438;16.744;2023-07-02T03:32:05;17.20;87.60
76936;DHT22;65881;52.438;16.744;2023-07-02T03:34:31;17.20;87.40
76936;DHT22;65881;52.438;16.744;2023-07-02T03:36:56;17.20;87.50
76936;DHT22;65881;52.438;16.744;2023-07-02T03:39:22;17.20;87.40
76936;DHT22;65881;52.438;16.744;2023-07-02T03:41:49;17.20;87.50
76936;DHT22;65881;52.438;16.744;2023-07-02T03:44:15;17.20;87.70
76936;DHT22;65881;52.438;16.744;2023-07-02T03:46:40;17.20;87.50
76936;DHT22;65881;52.438;16.744;2023-07-02T03:49:06;17.20;87.60
76936;DHT22;65881;52.438;16.744;2023-07-02T03:51:34;17.20;87.50
76936;DHT22;65881;52.438;16.744;2023-07-02T03:54:03;17.20;87.50
76936;DHT22;65881;52.438;16.744;2023-07-02T03:56:29;17.20;87.50
76936;DHT22;65881;52.438;16.744;2023-07-02T03:58:55;17.20;87.80
76936;DHT22;65881;52.438;16.744;2023-07-02T04:01:20;17.20;88.20
76936;DHT22;65881;52.438;16.744;2023-07-02T04:03:50;17.20;88.00
76936;DHT22;65881;52.438;16.744;2023-07-02T04:06:16;17.20;88.20
76936;DHT22;65881;52.438;16.744;2023-07-02T04:08:43;17.20;88.20
76936;DHT22;65881;52.438;16.744;2023-07-02T04:11:09;17.20;88.30
76936;DHT22;65881;52.438;16.744;2023-07-02T04:13:35;17.20;88.20
76936;DHT22;65881;52.438;16.744;2023-07-02T04:16:01;17.20;88.00
76936;DHT22;65881;52.438;16.744;2023-07-02T04:18:27;17.20;87.70
76936;DHT22;65881;52.438;16.744;2023-07-02T04:20:56;17.30;87.80
76936;DHT22;65881;52.438;16.744;2023-07-02T04:23:22;17.40;87.50
76936;DHT22;65881;52.438;16.744;2023-07-02T04:25:47;17.40;87.40
76936;DHT22;65881;52.438;16.744;2023-07-02T04:28:13;17.40;87.40
76936;DHT22;65881;52.438;16.744;2023-07-02T04:30:39;17.40;87.40
76936;DHT22;65881;52.438;16.744;2023-07-02T04:33:05;17.40;87.50
76936;DHT22;65881;52.438;16.744;2023-07-02T04:35:33;17.40;87.40
76936;DHT22;65881;52.438;16.744;2023-07-02T04:38:00;17.50;87.50
76936;DHT22;65881;52.438;16.744;2023-07-02T04:40:26;17.50;87.10
76936;DHT22;65881;52.438;16.744;2023-07-02T04:42:51;17.50;87.30
76936;DHT22;65881;52.438;16.744;2023-07-02T04:45:26;17.60;87.30
76936;DHT22;65881;52.438;16.744;2023-07-02T04:47:57;17.60;86.80
76936;DHT22;65881;52.438;16.744;2023-07-02T04:50:23;17.60;86.20
76936;DHT22;65881;52.438;16.744;2023-07-02T04:52:55;17.70;85.70
76936;DHT22;65881;52.438;16.744;2023-07-02T04:55:21;17.70;86.00
76936;DHT22;65881;52.438;16.744;2023-07-02T04:57:47;17.80;86.00
76936;DHT22;65881;52.438;16.744;2023-07-02T05:00:13;17.80;86.00
76936;DHT22;65881;52.438;16.744;2023-07-02T05:02:39;17.80;85.40
76936;DHT22;65881;52.438;16.744;2023-07-02T05:05:06;17.80;85.20
76936;DHT22;65881;52.438;16.744;2023-07-02T05:07:32;17.80;84.80
76936;DHT22;65881;52.438;16.744;2023-07-02T05:09:58;17.70;83.80
76936;DHT22;65881;52.438;16.744;2023-07-02T05:12:24;17.70;83.60
76936;DHT22;65881;52.438;16.744;2023-07-02T05:14:50;17.70;82.70
76936;DHT22;65881;52.438;16.744;2023-07-02T05:17:18;17.70;82.60
76936;DHT22;65881;52.438;16.744;2023-07-02T05:19:43;17.70;82.10
76936;DHT22;65881;52.438;16.744;2023-07-02T05:22:09;17.80;82.20
76936;DHT22;65881;52.438;16.744;2023-07-02T05:24:36;17.80;81.30
76936;DHT22;65881;52.438;16.744;2023-07-02T05:27:01;17.80;80.80
76936;DHT22;65881;52.438;16.744;2023-07-02T05:29:27;17.80;80.70
76936;DHT22;65881;52.438;16.744;2023-07-02T05:31:53;17.80;80.50
76936;DHT22;65881;52.438;16.744;2023-07-02T05:34:18;17.70;81.30
76936;DHT22;65881;52.438;16.744;2023-07-02T05:36:44;17.80;81.50
76936;DHT22;65881;52.438;16.744;2023-07-02T05:39:10;17.70;81.30
76936;DHT22;65881;52.438;16.744;2023-07-02T05:41:36;17.80;81.00
76936;DHT22;65881;52.438;16.744;2023-07-02T05:44:01;17.80;80.30
76936;DHT22;65881;52.438;16.744;2023-07-02T05:46:27;17.80;80.20
76936;DHT22;65881;52.438;16.744;2023-07-02T05:48:53;17.90;79.80
76936;DHT22;65881;52.438;16.744;2023-07-02T05:51:22;17.90;80.00
76936;DHT22;65881;52.438;16.744;2023-07-02T05:53:48;17.90;79.40
76936;DHT22;65881;52.438;16.744;2023-07-02T05:56:14;18.00;78.60
76936;DHT22;65881;52.438;16.744;2023-07-02T05:58:39;18.00;78.40
76936;DHT22;65881;52.438;16.744;2023-07-02T06:01:05;18.00;77.70
76936;DHT22;65881;52.438;16.744;2023-07-02T06:03:32;18.00;76.20
76936;DHT22;65881;52.438;16.744;2023-07-02T06:05:58;18.00;74.20
76936;DHT22;65881;52.438;16.744;2023-07-02T06:08:24;18.00;72.00
76936;DHT22;65881;52.438;16.744;2023-07-02T06:10:50;18.10;72.80
76936;DHT22;65881;52.438;16.744;2023-07-02T06:13:16;18.20;72.20
76936;DHT22;65881;52.438;16.744;2023-07-02T06:15:45;18.20;72.70
76936;DHT22;65881;52.438;16.744;2023-07-02T06:18:12;18.30;73.00
76936;DHT22;65881;52.438;16.744;2023-07-02T06:20:38;18.40;73.20
76936;DHT22;65881;52.438;16.744;2023-07-02T06:23:06;18.40;73.60
76936;DHT22;65881;52.438;16.744;2023-07-02T06:25:32;18.30;74.10
76936;DHT22;65881;52.438;16.744;2023-07-02T06:27:59;18.30;74.00
76936;DHT22;65881;52.438;16.744;2023-07-02T06:30:28;18.30;74.60
76936;DHT22;65881;52.438;16.744;2023-07-02T06:33:04;18.30;74.70
76936;DHT22;65881;52.438;16.744;2023-07-02T06:35:30;18.40;74.50
76936;DHT22;65881;52.438;16.744;2023-07-02T06:37:58;18.50;72.50
76936;DHT22;65881;52.438;16.744;2023-07-02T06:40:23;18.50;71.40
76936;DHT22;65881;52.438;16.744;2023-07-02T06:42:49;18.50;71.40
76936;DHT22;65881;52.438;16.744;2023-07-02T06:45:15;18.50;72.50
76936;DHT22;65881;52.438;16.744;2023-07-02T06:47:40;18.60;72.60
76936;DHT22;65881;52.438;16.744;2023-07-02T06:50:06;18.80;70.50
76936;DHT22;65881;52.438;16.744;2023-07-02T06:52:32;18.80;71.00
76936;DHT22;65881;52.438;16.744;2023-07-02T06:54:58;18.90;70.10
76936;DHT22;65881;52.438;16.744;2023-07-02T06:57:24;18.90;70.70
76936;DHT22;65881;52.438;16.744;2023-07-02T06:59:49;19.00;69.80
76936;DHT22;65881;52.438;16.744;2023-07-02T07:02:15;19.10;67.70
76936;DHT22;65881;52.438;16.744;2023-07-02T07:04:41;19.00;68.50
76936;DHT22;65881;52.438;16.744;2023-07-02T07:07:08;19.00;69.20
76936;DHT22;65881;52.438;16.744;2023-07-02T07:09:34;19.00;68.90
76936;DHT22;65881;52.438;16.744;2023-07-02T07:12:01;19.00;69.40
76936;DHT22;65881;52.438;16.744;2023-07-02T07:14:29;18.90;69.70
76936;DHT22;65881;52.438;16.744;2023-07-02T07:16:55;18.80;66.20
76936;DHT22;65881;52.438;16.744;2023-07-02T07:19:21;18.70;66.50
76936;DHT22;65881;52.438;16.744;2023-07-02T07:21:48;18.70;65.30
76936;DHT22;65881;52.438;16.744;2023-07-02T07:24:14;18.70;66.70
76936;DHT22;65881;52.438;16.744;2023-07-02T07:26:40;18.80;68.00
76936;DHT22;65881;52.438;16.744;2023-07-02T07:29:05;18.90;65.70
76936;DHT22;65881;52.438;16.744;2023-07-02T07:31:31;18.80;65.40
76936;DHT22;65881;52.438;16.744;2023-07-02T07:33:59;18.80;66.00
76936;DHT22;65881;52.438;16.744;2023-07-02T07:36:24;18.80;65.00
76936;DHT22;65881;52.438;16.744;2023-07-02T07:38:50;18.80;65.20
76936;DHT22;65881;52.438;16.744;2023-07-02T07:41:15;18.80;65.50
76936;DHT22;65881;52.438;16.744;2023-07-02T07:43:44;19.00;64.60
76936;DHT22;65881;52.438;16.744;2023-07-02T07:46:10;19.20;63.90
76936;DHT22;65881;52.438;16.744;2023-07-02T07:48:35;19.30;60.70
76936;DHT22;65881;52.438;16.744;2023-07-02T07:51:02;19.40;59.70
76936;DHT22;65881;52.438;16.744;2023-07-02T07:53:28;19.50;59.80
76936;DHT22;65881;52.438;16.744;2023-07-02T07:55:53;19.50;60.00
76936;DHT22;65881;52.438;16.744;2023-07-02T07:58:19;19.50;58.50
76936;DHT22;65881;52.438;16.744;2023-07-02T08:00:45;19.60;58.00
76936;DHT22;65881;52.438;16.744;2023-07-02T08:03:10;19.60;59.10
76936;DHT22;65881;52.438;16.744;2023-07-02T08:05:36;19.70;59.00
76936;DHT22;65881;52.438;16.744;2023-07-02T08:08:02;19.70;57.70
76936;DHT22;65881;52.438;16.744;2023-07-02T08:10:28;19.80;58.50
76936;DHT22;65881;52.438;16.744;2023-07-02T08:12:56;19.90;57.90
76936;DHT22;65881;52.438;16.744;2023-07-02T08:15:22;20.00;57.10
76936;DHT22;65881;52.438;16.744;2023-07-02T08:17:48;19.80;55.80
76936;DHT22;65881;52.438;16.744;2023-07-02T08:20:14;19.70;57.40
76936;DHT22;65881;52.438;16.744;2023-07-02T08:22:40;19.80;58.20
76936;DHT22;65881;52.438;16.744;2023-07-02T08:25:18;20.00;56.10
76936;DHT22;65881;52.438;16.744;2023-07-02T08:27:46;20.20;56.80
76936;DHT22;65881;52.438;16.744;2023-07-02T08:30:12;20.50;53.40
76936;DHT22;65881;52.438;16.744;2023-07-02T08:32:42;20.60;54.80
76936;DHT22;65881;52.438;16.744;2023-07-02T08:35:08;20.80;49.40
76936;DHT22;65881;52.438;16.744;2023-07-02T08:37:33;21.00;49.50
76936;DHT22;65881;52.438;16.744;2023-07-02T08:39:59;21.20;49.90
76936;DHT22;65881;52.438;16.744;2023-07-02T08:42:25;21.20;49.60
76936;DHT22;65881;52.438;16.744;2023-07-02T08:44:55;21.30;50.20
76936;DHT22;65881;52.438;16.744;2023-07-02T08:47:25;21.40;48.90
76936;DHT22;65881;52.438;16.744;2023-07-02T08:49:50;21.50;50.50
76936;DHT22;65881;52.438;16.744;2023-07-02T08:52:16;21.60;49.50
76936;DHT22;65881;52.438;16.744;2023-07-02T08:54:42;21.70;50.40
76936;DHT22;65881;52.438;16.744;2023-07-02T08:57:09;21.60;51.00
76936;DHT22;65881;52.438;16.744;2023-07-02T08:59:38;21.90;52.10
76936;DHT22;65881;52.438;16.744;2023-07-02T09:02:04;22.20;51.20
76936;DHT22;65881;52.438;16.744;2023-07-02T09:04:29;22.50;51.60
76936;DHT22;65881;52.438;16.744;2023-07-02T09:07:09;22.30;50.30
76936;DHT22;65881;52.438;16.744;2023-07-02T09:09:45;21.70;50.70
76936;DHT22;65881;52.438;16.744;2023-07-02T09:12:33;22.00;52.00
76936;DHT22;65881;52.438;16.744;2023-07-02T09:15:00;22.20;51.10
76936;DHT22;65881;52.438;16.744;2023-07-02T09:17:34;22.50;49.90
76936;DHT22;65881;52.438;16.744;2023-07-02T09:20:03;22.60;48.70
76936;DHT22;65881;52.438;16.744;2023-07-02T09:22:36;22.60;49.40
76936;DHT22;65881;52.438;16.744;2023-07-02T09:25:02;22.70;48.90
76936;DHT22;65881;52.438;16.744;2023-07-02T09:27:35;22.60;49.10
76936;DHT22;65881;52.438;16.744;2023-07-02T09:30:13;23.00;48.20
76936;DHT22;65881;52.438;16.744;2023-07-02T09:32:44;23.20;47.70
76936;DHT22;65881;52.438;16.744;2023-07-02T09:35:11;23.40;46.50
76936;DHT22;65881;52.438;16.744;2023-07-02T09:37:42;23.50;45.60
76936;DHT22;65881;52.438;16.744;2023-07-02T09:40:08;23.80;45.90
76936;DHT22;65881;52.438;16.744;2023-07-02T09:42:37;23.90;44.70
76936;DHT22;65881;52.438;16.744;2023-07-02T09:45:06;23.80;44.30
76936;DHT22;65881;52.438;16.744;2023-07-02T09:47:35;23.80;43.10
76936;DHT22;65881;52.438;16.744;2023-07-02T09:50:04;24.00;46.20
76936;DHT22;65881;52.438;16.744;2023-07-02T09:52:34;24.40;43.60
76936;DHT22;65881;52.438;16.744;2023-07-02T09:55:01;24.00;45.30
76936;DHT22;65881;52.438;16.744;2023-07-02T09:57:26;24.10;46.10
76936;DHT22;65881;52.438;16.744;2023-07-02T09:59:55;24.30;43.30
76936;DHT22;65881;52.438;16.744;2023-07-02T10:02:21;23.80;43.00
76936;DHT22;65881;52.438;16.744;2023-07-02T10:04:47;23.10;44.20
76936;DHT22;65881;52.438;16.744;2023-07-02T10:07:35;22.90;44.90
76936;DHT22;65881;52.438;16.744;2023-07-02T10:10:01;22.80;46.00
76936;DHT22;65881;52.438;16.744;2023-07-02T10:12:28;22.60;46.70
76936;DHT22;65881;52.438;16.744;2023-07-02T10:14:56;22.30;47.80
76936;DHT22;65881;52.438;16.744;2023-07-02T10:17:35;22.20;47.80
76936;DHT22;65881;52.438;16.744;2023-07-02T10:20:05;22.50;48.90
76936;DHT22;65881;52.438;16.744;2023-07-02T10:22:50;22.90;47.40
76936;DHT22;65881;52.438;16.744;2023-07-02T10:25:26;22.70;44.00
76936;DHT22;65881;52.438;16.744;2023-07-02T10:27:52;23.20;46.60
76936;DHT22;65881;52.438;16.744;2023-07-02T10:30:18;23.90;44.70
76936;DHT22;65881;52.438;16.744;2023-07-02T10:32:44;24.30;44.40
76936;DHT22;65881;52.438;16.744;2023-07-02T10:35:16;24.30;43.20
76936;DHT22;65881;52.438;16.744;2023-07-02T10:37:43;24.10;44.20
76936;DHT22;65881;52.438;16.744;2023-07-02T10:40:09;24.40;44.20
76936;DHT22;65881;52.438;16.744;2023-07-02T10:42:45;24.40;43.20
76936;DHT22;65881;52.438;16.744;2023-07-02T10:45:12;24.30;43.90
76936;DHT22;65881;52.438;16.744;2023-07-02T10:47:53;24.60;43.60
76936;DHT22;65881;52.438;16.744;2023-07-02T10:50:20;24.80;43.10
76936;DHT22;65881;52.438;16.744;2023-07-02T10:52:47;25.40;43.90
76936;DHT22;65881;52.438;16.744;2023-07-02T10:55:20;25.60;42.20
76936;DHT22;65881;52.438;16.744;2023-07-02T10:57:46;25.50;44.20
76936;DHT22;65881;52.438;16.744;2023-07-02T11:00:12;25.60;43.30
76936;DHT22;65881;52.438;16.744;2023-07-02T11:02:38;25.40;43.30
76936;DHT22;65881;52.438;16.744;2023-07-02T11:05:08;25.10;42.40
76936;DHT22;65881;52.438;16.744;2023-07-02T11:07:40;24.70;44.00
76936;DHT22;65881;52.438;16.744;2023-07-02T11:10:07;25.00;43.40
76936;DHT22;65881;52.438;16.744;2023-07-02T11:12:38;25.00;41.00
76936;DHT22;65881;52.438;16.744;2023-07-02T11:15:11;24.80;42.00
76936;DHT22;65881;52.438;16.744;2023-07-02T11:17:38;24.30;42.30
76936;DHT22;65881;52.438;16.744;2023-07-02T11:20:11;24.00;43.70
76936;DHT22;65881;52.438;16.744;2023-07-02T11:22:38;23.90;43.40
76936;DHT22;65881;52.438;16.744;2023-07-02T11:25:16;23.60;43.20
76936;DHT22;65881;52.438;16.744;2023-07-02T11:27:43;23.90;42.40
76936;DHT22;65881;52.438;16.744;2023-07-02T11:30:09;24.20;42.60
76936;DHT22;65881;52.438;16.744;2023-07-02T11:32:47;24.50;41.70
76936;DHT22;65881;52.438;16.744;2023-07-02T11:35:17;24.00;43.20
76936;DHT22;65881;52.438;16.744;2023-07-02T11:37:43;24.00;41.20
76936;DHT22;65881;52.438;16.744;2023-07-02T11:40:09;24.00;45.10
76936;DHT22;65881;52.438;16.744;2023-07-02T11:42:35;24.30;41.70
76936;DHT22;65881;52.438;16.744;2023-07-02T11:45:01;24.50;42.20
76936;DHT22;65881;52.438;16.744;2023-07-02T11:47:27;25.00;41.60
76936;DHT22;65881;52.438;16.744;2023-07-02T11:49:53;25.20;40.80
76936;DHT22;65881;52.438;16.744;2023-07-02T11:52:20;24.80;40.80
76936;DHT22;65881;52.438;16.744;2023-07-02T11:54:47;24.30;41.00
76936;DHT22;65881;52.438;16.744;2023-07-02T11:57:12;23.90;42.50
76936;DHT22;65881;52.438;16.744;2023-07-02T11:59:38;23.60;43.60
76936;DHT22;65881;52.438;16.744;2023-07-02T12:02:04;23.40;43.90
76936;DHT22;65881;52.438;16.744;2023-07-02T12:04:30;23.10;44.10
76936;DHT22;65881;52.438;16.744;2023-07-02T12:06:57;22.70;44.80
76936;DHT22;65881;52.438;16.744;2023-07-02T12:09:23;22.30;45.00
76936;DHT22;65881;52.438;16.744;2023-07-02T12:11:48;22.10;45.60
76936;DHT22;65881;52.438;16.744;2023-07-02T12:14:16;22.00;47.10
76936;DHT22;65881;52.438;16.744;2023-07-02T12:16:49;21.90;46.10
76936;DHT22;65881;52.438;16.744;2023-07-02T12:19:15;21.70;46.80
76936;DHT22;65881;52.438;16.744;2023-07-02T12:21:41;21.70;47.20
76936;DHT22;65881;52.438;16.744;2023-07-02T12:24:06;21.80;48.40
76936;DHT22;65881;52.438;16.744;2023-07-02T12:26:37;22.00;47.80
76936;DHT22;65881;52.438;16.744;2023-07-02T12:29:04;22.10;47.60
76936;DHT22;65881;52.438;16.744;2023-07-02T12:31:30;21.90;47.00
76936;DHT22;65881;52.438;16.744;2023-07-02T12:33:56;21.80;46.70
76936;DHT22;65881;52.438;16.744;2023-07-02T12:36:22;21.80;47.80
76936;DHT22;65881;52.438;16.744;2023-07-02T12:38:48;21.90;47.70
76936;DHT22;65881;52.438;16.744;2023-07-02T12:41:13;22.00;47.60
76936;DHT22;65881;52.438;16.744;2023-07-02T12:43:39;22.00;47.40
76936;DHT22;65881;52.438;16.744;2023-07-02T12:46:06;22.30;48.70
76936;DHT22;65881;52.438;16.744;2023-07-02T12:48:31;22.80;45.50
76936;DHT22;65881;52.438;16.744;2023-07-02T12:50:58;22.80;45.50
76936;DHT22;65881;52.438;16.744;2023-07-02T12:53:26;22.80;46.00
76936;DHT22;65881;52.438;16.744;2023-07-02T12:55:52;22.50;46.10
76936;DHT22;65881;52.438;16.744;2023-07-02T12:58:21;22.10;47.10
76936;DHT22;65881;52.438;16.744;2023-07-02T13:00:47;21.90;48.30
76936;DHT22;65881;52.438;16.744;2023-07-02T13:03:14;21.90;48.00
76936;DHT22;65881;52.438;16.744;2023-07-02T13:05:40;21.50;48.60
76936;DHT22;65881;52.438;16.744;2023-07-02T13:08:06;21.70;47.20
76936;DHT22;65881;52.438;16.744;2023-07-02T13:10:33;21.70;46.00
76936;DHT22;65881;52.438;16.744;2023-07-02T13:12:59;21.70;47.30
76936;DHT22;65881;52.438;16.744;2023-07-02T13:15:25;21.70;48.20
76936;DHT22;65881;52.438;16.744;2023-07-02T13:18:01;21.70;46.90
76936;DHT22;65881;52.438;16.744;2023-07-02T13:20:26;21.50;46.30
76936;DHT22;65881;52.438;16.744;2023-07-02T13:22:52;21.40;45.60
76936;DHT22;65881;52.438;16.744;2023-07-02T13:25:18;21.30;46.80
76936;DHT22;65881;52.438;16.744;2023-07-02T13:27:44;21.40;47.30
76936;DHT22;65881;52.438;16.744;2023-07-02T13:30:10;21.50;47.00
76936;DHT22;65881;52.438;16.744;2023-07-02T13:32:36;21.40;47.00
76936;DHT22;65881;52.438;16.744;2023-07-02T13:35:02;21.50;47.60
76936;DHT22;65881;52.438;16.744;2023-07-02T13:37:31;21.70;45.80
76936;DHT22;65881;52.438;16.744;2023-07-02T13:39:56;21.50;45.80
76936;DHT22;65881;52.438;16.744;2023-07-02T13:42:22;21.40;46.70
76936;DHT22;65881;52.438;16.744;2023-07-02T13:44:49;21.40;46.70
76936;DHT22;65881;52.438;16.744;2023-07-02T13:47:14;21.40;46.60
76936;DHT22;65881;52.438;16.744;2023-07-02T13:49:41;21.70;46.10
76936;DHT22;65881;52.438;16.744;2023-07-02T13:52:07;21.90;47.30
76936;DHT22;65881;52.438;16.744;2023-07-02T13:54:33;22.10;44.60
76936;DHT22;65881;52.438;16.744;2023-07-02T13:57:03;22.10;44.70
76936;DHT22;65881;52.438;16.744;2023-07-02T13:59:31;22.10;46.50
76936;DHT22;65881;52.438;16.744;2023-07-02T14:01:57;22.30;45.90
76936;DHT22;65881;52.438;16.744;2023-07-02T14:04:25;22.20;45.60
76936;DHT22;65881;52.438;16.744;2023-07-02T14:06:51;22.30;46.00
76936;DHT22;65881;52.438;16.744;2023-07-02T14:09:16;22.60;45.70
76936;DHT22;65881;52.438;16.744;2023-07-02T14:11:42;22.60;46.40
76936;DHT22;65881;52.438;16.744;2023-07-02T14:14:09;22.80;44.90
76936;DHT22;65881;52.438;16.744;2023-07-02T14:16:35;22.70;43.70
76936;DHT22;65881;52.438;16.744;2023-07-02T14:19:00;22.80;44.60
76936;DHT22;65881;52.438;16.744;2023-07-02T14:21:26;22.90;44.50
76936;DHT22;65881;52.438;16.744;2023-07-02T14:23:52;22.90;44.70
76936;DHT22;65881;52.438;16.744;2023-07-02T14:26:18;23.00;46.00
76936;DHT22;65881;52.438;16.744;2023-07-02T14:28:44;23.00;44.60
76936;DHT22;65881;52.438;16.744;2023-07-02T14:31:10;23.10;43.80
76936;DHT22;65881;52.438;16.744;2023-07-02T14:33:37;23.00;42.60
76936;DHT22;65881;52.438;16.744;2023-07-02T14:36:03;22.90;43.70
76936;DHT22;65881;52.438;16.744;2023-07-02T14:38:30;22.70;43.70
76936;DHT22;65881;52.438;16.744;2023-07-02T14:40:56;22.70;44.00
76936;DHT22;65881;52.438;16.744;2023-07-02T14:43:23;22.80;42.70
76936;DHT22;65881;52.438;16.744;2023-07-02T14:45:51;22.60;42.50
76936;DHT22;65881;52.438;16.744;2023-07-02T14:48:17;22.30;43.60
76936;DHT22;65881;52.438;16.744;2023-07-02T14:50:45;22.40;43.60
76936;DHT22;65881;52.438;16.744;2023-07-02T14:53:14;22.60;44.00
76936;DHT22;65881;52.438;16.744;2023-07-02T14:55:40;22.90;44.50
76936;DHT22;65881;52.438;16.744;2023-07-02T14:58:06;23.00;44.10
76936;DHT22;65881;52.438;16.744;2023-07-02T15:00:32;22.60;41.80
76936;DHT22;65881;52.438;16.744;2023-07-02T15:02:58;22.10;42.30
76936;DHT22;65881;52.438;16.744;2023-07-02T15:05:24;21.80;43.30
76936;DHT22;65881;52.438;16.744;2023-07-02T15:07:49;21.50;44.60
76936;DHT22;65881;52.438;16.744;2023-07-02T15:10:17;21.60;45.40
76936;DHT22;65881;52.438;16.744;2023-07-02T15:12:42;21.70;45.30
76936;DHT22;65881;52.438;16.744;2023-07-02T15:15:08;21.70;45.50
76936;DHT22;65881;52.438;16.744;2023-07-02T15:17:35;21.50;44.80